| time (UTC) | temp C | wind direction | speed KPH | gust KPH | rain 1hr cm | rain 24hr cm | rain mn cm | humidity % | barometer mb |
| 20260507220021 | 11 | 160 | 3.2 | 9.7 | 0.00 | 1.98 | 1.98 | 94 | 1001.6 |
| 20260507214519 | 11 | 160 | 0.0 | 0.0 | 0.00 | 1.98 | 1.98 | 94 | 1001.8 |
| 20260507213018 | 11 | 160 | 0.0 | 8.0 | 0.00 | 1.98 | 1.98 | 94 | 1001.9 |
| 20260507211523 | 11 | 160 | 4.8 | 11.3 | 0.00 | 1.98 | 1.98 | 94 | 1001.9 |
| 20260507210119 | 11 | 190 | 1.6 | 6.4 | 0.00 | 1.98 | 1.98 | 94 | 1001.9 |
| 20260507204516 | 11 | 190 | 4.8 | 11.3 | 0.00 | 1.98 | 1.98 | 94 | 1001.9 |
| 20260507203015 | 11 | 176 | 4.8 | 14.5 | 0.05 | 1.98 | 1.98 | 94 | 1001.4 |
| 20260507201515 | 11 | 130 | 3.2 | 17.7 | 0.18 | 1.98 | 1.98 | 94 | 1001.0 |
| 20260507200012 | 11 | 138 | 1.6 | 11.3 | 0.33 | 1.98 | 1.98 | 94 | 1001.2 |
| 20260507194509 | 11 | 203 | 1.6 | 6.4 | 0.48 | 1.98 | 1.98 | 94 | 1001.9 |
| 20260507193007 | 11 | 203 | 1.6 | 4.8 | 0.53 | 1.93 | 1.93 | 94 | 1002.3 |
| 20260507191505 | 11 | 204 | 1.6 | 6.4 | 0.53 | 1.78 | 1.78 | 93 | 1002.7 |
| 20260507190004 | 12 | 205 | 3.2 | 8.0 | 0.51 | 1.63 | 1.63 | 93 | 1003.7 |
| 20260507184502 | 11 | 205 | 0.0 | 4.8 | 0.58 | 1.50 | 1.50 | 93 | 1003.8 |
| 20260507183002 | 11 | 205 | 0.0 | 9.7 | 0.84 | 1.37 | 1.37 | 93 | 1004.0 |
| 20260507181605 | 11 | 205 | 4.8 | 9.7 | 1.12 | 1.27 | 1.27 | 93 | 1004.2 |
| 20260507180100 | 11 | 213 | 6.4 | 19.3 | 1.04 | 1.09 | 1.09 | 92 | 1004.2 |
| 20260507174559 | 11 | 184 | 8.0 | 17.7 | 0.89 | 0.91 | 0.91 | 92 | 1004.7 |
| 20260507173103 | 12 | 218 | 9.7 | 19.3 | 0.51 | 0.53 | 0.53 | 91 | 1004.7 |
| 20260507171600 | 12 | 167 | 8.0 | 20.9 | 0.10 | 0.10 | 0.10 | 91 | 1004.2 |
| 20260507164600 | 13 | 169 | 9.7 | 32.2 | 0.03 | 0.03 | 0.03 | 89 | 1004.3 |
| 20260507163052 | 13 | 170 | 12.9 | 30.6 | 0.00 | 0.00 | 0.00 | 88 | 1004.5 |
| 20260507161549 | 13 | 189 | 14.5 | 27.4 | 0.00 | 0.00 | 0.00 | 87 | 1005.1 |
| 20260507160148 | 13 | 188 | 11.3 | 27.4 | 0.00 | 0.00 | 0.00 | 87 | 1005.4 |
| 20260507154551 | 13 | 173 | 16.1 | 27.4 | 0.00 | 0.00 | 0.00 | 87 | 1006.0 |
| 20260507153044 | 14 | 145 | 12.9 | 32.2 | 0.00 | 0.00 | 0.00 | 85 | 1006.0 |
| 20260507151542 | 14 | 201 | 11.3 | 48.3 | 0.00 | 0.00 | 0.00 | 85 | 1006.5 |
| 20260507150040 | 15 | 169 | 17.7 | 33.8 | 0.00 | 0.00 | 0.00 | 85 | 1006.8 |
| 20260507144538 | 15 | 161 | 19.3 | 32.2 | 0.00 | 0.00 | 0.00 | 85 | 1006.9 |
| 20260507143038 | 14 | 142 | 12.9 | 37.0 | 0.00 | 0.00 | 0.00 | 85 | 1007.0 |
| 20260507141534 | 14 | 155 | 24.1 | 48.3 | 0.00 | 0.00 | 0.00 | 85 | 1007.4 |
| 20260507140033 | 14 | 191 | 19.3 | 37.0 | 0.00 | 0.00 | 0.00 | 87 | 1007.3 |
| 20260507134532 | 13 | 134 | 12.9 | 32.2 | 0.00 | 0.00 | 0.00 | 88 | 1007.9 |
| 20260507133030 | 13 | 163 | 12.9 | 37.0 | 0.00 | 0.00 | 0.00 | 88 | 1007.9 |
| 20260507131536 | 13 | 145 | 16.1 | 38.6 | 0.00 | 0.00 | 0.00 | 87 | 1007.9 |
| 20260507130026 | 13 | 169 | 16.1 | 32.2 | 0.00 | 0.00 | 0.00 | 87 | 1008.3 |
| 20260507124531 | 13 | 160 | 16.1 | 49.9 | 0.00 | 0.00 | 0.00 | 86 | 1008.5 |
| 20260507123028 | 14 | 161 | 16.1 | 30.6 | 0.00 | 0.00 | 0.00 | 88 | 1008.7 |
| 20260507121524 | 13 | 184 | 9.7 | 37.0 | 0.00 | 0.00 | 0.00 | 90 | 1008.8 |
| 20260507120027 | 13 | 174 | 20.9 | 43.5 | 0.00 | 0.00 | 0.00 | 92 | 1008.3 |
| 20260507114519 | 13 | 170 | 17.7 | 29.0 | 0.00 | 0.00 | 0.00 | 92 | 1008.9 |
| 20260507113017 | 12 | 138 | 14.5 | 33.8 | 0.00 | 0.00 | 0.00 | 92 | 1009.1 |
| 20260507111515 | 12 | 183 | 12.9 | 27.4 | 0.00 | 0.00 | 0.00 | 92 | 1009.8 |
| 20260507110016 | 12 | 165 | 14.5 | 32.2 | 0.00 | 0.00 | 0.00 | 92 | 1010.0 |
| 20260507104513 | 12 | 128 | 9.7 | 24.1 | 0.00 | 0.00 | 0.00 | 91 | 1010.1 |
| 20260507103013 | 12 | 167 | 14.5 | 38.6 | 0.00 | 0.00 | 0.00 | 92 | 1009.9 |
| 20260507101515 | 12 | 167 | 16.1 | 30.6 | 0.00 | 0.00 | 0.00 | 92 | 1010.0 |
| 20260507100008 | 12 | 171 | 12.9 | 27.4 | 0.00 | 0.00 | 0.00 | 93 | 1010.2 |
| 20260507094505 | 12 | 149 | 6.4 | 22.5 | 0.00 | 0.00 | 0.00 | 93 | 1010.7 |
| 20260507093004 | 11 | 156 | 9.7 | 17.7 | 0.00 | 0.00 | 0.00 | 93 | 1010.9 |
| 20260507091503 | 11 | 157 | 4.8 | 16.1 | 0.00 | 0.00 | 0.00 | 92 | 1010.6 |
| 20260507090004 | 12 | 175 | 3.2 | 25.7 | 0.00 | 0.00 | 0.00 | 93 | 1010.9 |
| 20260507084502 | 11 | 152 | 12.9 | 19.3 | 0.00 | 0.00 | 0.00 | 93 | 1011.2 |
| 20260507083059 | 11 | 175 | 6.4 | 16.1 | 0.00 | 0.00 | 0.00 | 92 | 1011.1 |
| 20260507081557 | 11 | 146 | 4.8 | 14.5 | 0.00 | 0.00 | 0.00 | 92 | 1011.1 |
| 20260507080118 | 10 | 177 | 1.6 | 6.4 | 0.00 | 0.00 | 0.00 | 92 | 1011.1 |
| 20260507074558 | 10 | 177 | 0.0 | 4.8 | 0.00 | 0.00 | 0.00 | 92 | 1011.1 |
| 20260507073104 | 10 | 177 | 4.8 | 9.7 | 0.00 | 0.00 | 0.00 | 91 | 1011.6 |
| 20260507071550 | 10 | 177 | 1.6 | 12.9 | 0.00 | 0.00 | 0.00 | 91 | 1012.2 |
| 20260507070048 | 10 | 177 | 4.8 | 9.7 | 0.00 | 0.00 | 0.00 | 91 | 1012.7 |
| 20260507064547 | 10 | 177 | 1.6 | 6.4 | 0.00 | 0.00 | 0.00 | 91 | 1012.8 |
| 20260507063055 | 10 | 178 | 3.2 | 6.4 | 0.00 | 0.00 | 0.00 | 91 | 1012.8 |
| 20260507061546 | 10 | 178 | 4.8 | 11.3 | 0.00 | 0.00 | 0.00 | 90 | 1013.1 |
| 20260507060050 | 10 | 101 | 1.6 | 6.4 | 0.00 | 0.00 | 0.00 | 90 | 1012.7 |
| 20260507054545 | 10 | 101 | 0.0 | 4.8 | 0.00 | 0.00 | 0.00 | 89 | 1013.0 |
| 20260507053040 | 10 | 101 | 6.4 | 11.3 | 0.00 | 0.00 | 0.00 | 89 | 1013.5 |
| 20260507051537 | 10 | 103 | 6.4 | 14.5 | 0.00 | 0.00 | 0.00 | 89 | 1014.2 |
| 20260507050034 | 10 | 199 | 4.8 | 9.7 | 0.00 | 0.00 | 0.00 | 89 | 1014.4 |
| 20260507044530 | 10 | 203 | 3.2 | 8.0 | 0.00 | 0.00 | 0.00 | 88 | 1014.8 |
| 20260507043027 | 10 | 203 | 0.0 | 3.2 | 0.00 | 0.00 | 0.00 | 87 | 1015.1 |
| 20260507041524 | 10 | 203 | 0.0 | 4.8 | 0.00 | 0.00 | 0.00 | 87 | 1015.5 |
| 20260507040022 | 10 | 203 | 0.0 | 0.0 | 0.00 | 0.00 | 0.00 | 86 | 1015.8 |
| 20260507034520 | 11 | 203 | 1.6 | 6.4 | 0.00 | 0.00 | 0.00 | 86 | 1016.2 |
| 20260507033017 | 11 | 203 | 1.6 | 6.4 | 0.00 | 0.00 | 0.00 | 85 | 1016.3 |
| 20260507031514 | 11 | 203 | 0.0 | 4.8 | 0.00 | 0.00 | 0.00 | 85 | 1016.5 |
| 20260507030013 | 11 | 203 | 0.0 | 1.6 | 0.00 | 0.00 | 0.00 | 84 | 1016.6 |
| 20260507024512 | 11 | 203 | 0.0 | 6.4 | 0.00 | 0.00 | 0.00 | 84 | 1016.8 |
| 20260507023010 | 11 | 203 | 3.2 | 8.0 | 0.00 | 0.00 | 0.00 | 84 | 1016.9 |
| 20260507021509 | 11 | 203 | 0.0 | 4.8 | 0.00 | 0.00 | 0.00 | 84 | 1017.1 |
| 20260507020008 | 12 | 203 | 0.0 | 8.0 | 0.00 | 0.00 | 0.00 | 83 | 1017.3 |
| 20260507014506 | 12 | 203 | 0.0 | 4.8 | 0.00 | 0.00 | 0.00 | 82 | 1017.3 |
| 20260507013012 | 12 | 203 | 0.0 | 4.8 | 0.00 | 0.00 | 0.00 | 82 | 1017.3 |
| 20260507011509 | 12 | 203 | 3.2 | 6.4 | 0.00 | 0.00 | 0.00 | 81 | 1017.5 |
| 20260507010003 | 12 | 203 | 1.6 | 9.7 | 0.00 | 0.00 | 0.00 | 80 | 1017.5 |
| 20260507004504 | 13 | 203 | 3.2 | 9.7 | 0.00 | 0.00 | 0.00 | 79 | 1017.6 |
| 20260507003001 | 13 | 203 | 3.2 | 12.9 | 0.00 | 0.00 | 0.00 | 79 | 1017.6 |
| 20260507001501 | 13 | 190 | 3.2 | 14.5 | 0.00 | 0.00 | 0.00 | 79 | 1017.5 |
| 20260507000002 | 13 | 180 | 4.8 | 17.7 | 0.00 | 0.00 | 0.00 | 79 | 1017.6 |
| 20260506234559 | 13 | 187 | 4.8 | 14.5 | 0.00 | 0.00 | 0.00 | 79 | 1017.6 |
| 20260506233110 | 14 | 194 | 3.2 | 17.7 | 0.00 | 0.00 | 0.00 | 79 | 1017.4 |
| 20260506231601 | 14 | 188 | 8.0 | 19.3 | 0.00 | 0.00 | 0.00 | 79 | 1017.3 |
| 20260506230055 | 15 | 163 | 6.4 | 24.1 | 0.00 | 0.00 | 0.00 | 79 | 1017.0 |
| 20260506224554 | 15 | 171 | 4.8 | 16.1 | 0.00 | 0.00 | 0.00 | 78 | 1016.7 |
| 20260506223053 | 16 | 210 | 9.7 | 22.5 | 0.00 | 0.00 | 0.00 | 76 | 1016.6 |
| 20260506221552 | 17 | 160 | 8.0 | 17.7 | 0.00 | 0.00 | 0.00 | 74 | 1016.5 |